Terminal Aerodrome Forecast
Issued by NWS Anchorage, AK

Home | Current Version | Previous Version | Text Only | Print | Product List | Glossary On
Versions: 1 2 3 4 5 6 7 8 9 10 11 12 13 14 15 16 17 18 19 20 21 22 23
000
FTAK31 PANC 240526
TAFANC
TAF
PANC 240526Z 2406/2512 16012G20KT P6SM VCSH SCT070 OVC100
     FM241100 34006KT P6SM -RA OVC050
     FM242100 03005KT P6SM VCSH SCT050 OVC070
     FM250000 VRB04KT P6SM OVC100=

USA.gov is the U.S. government's official web portal to all federal, state and local government web resources and services.